Terminal Aerodrome Forecast
Issued by NWS

Home | Current Version | Previous Version | Text Only | Print | Product List | Glossary On
Versions: 1 2 3 4 5 6 7 8 9 10 11 12 13 14 15 16 17 18 19 20 21
000
FTUS44 KBMX 061133
TAFEET
TAF
KEET 061133Z 0612/0712 20004KT 2SM BR OVC005
     FM061400 26005KT P6SM BKN015
     FM061600 26008KT P6SM BKN040
     FM070000 26004KT P6SM SKC
      AMD NOT SKED=

USA.gov is the U.S. government's official web portal to all federal, state and local government web resources and services.